Time;durP1;ratioP1;P1;durP2;ratioP2;P2;SDS_P1;SDS_P2;PMS_P1;PMS_P2;Temp;Humidity;BMP_temperature;BMP_pressure;BME280_temperature;BME280_humidity;BME280_pressure;Samples;Min_cycle;Max_cycle;Signal;HPM_P1;HPM_P2
2023/04/26 00:02:12;;;;;;;6.70;1.70;;;;;;;;;;4850362;29;20399;-79
2023/04/26 00:04:38;;;;;;;8.63;1.25;;;;;;;;;;4852852;29;20483;-80
2023/04/26 00:07:05;;;;;;;8.15;1.58;;;;;;;;;;4850299;29;20069;-79
2023/04/26 00:09:31;;;;;;;14.68;2.35;;;;;;;;;;4856949;29;20382;-77
2023/04/26 00:11:57;;;;;;;7.63;1.70;;;;;;;;;;4854451;29;20509;-77
2023/04/26 00:14:23;;;;;;;8.63;1.38;;;;;;;;;;4854159;29;20042;-79
2023/04/26 00:16:49;;;;;;;8.38;1.08;;;;;;;;;;4855916;29;20034;-77
2023/04/26 00:19:16;;;;;;;6.70;1.30;;;;;;;;;;4856646;29;20112;-77
2023/04/26 00:21:42;;;;;;;4.90;1.23;;;;;;;;;;4852613;29;20115;-76
2023/04/26 00:24:08;;;;;;;7.03;1.25;;;;;;;;;;4850000;29;20048;-77
2023/04/26 00:26:35;;;;;;;9.25;1.60;;;;;;;;;;4855193;29;20585;-77
2023/04/26 00:29:01;;;;;;;5.65;1.23;;;;;;;;;;4824292;29;20046;-77
2023/04/26 00:31:27;;;;;;;8.43;1.45;;;;;;;;;;4831567;29;20491;-76
2023/04/26 00:33:53;;;;;;;6.50;1.33;;;;;;;;;;4853280;29;20041;-77
2023/04/26 00:36:19;;;;;;;7.70;2.28;;;;;;;;;;4854657;29;20053;-77
2023/04/26 00:38:46;;;;;;;8.88;2.40;;;;;;;;;;4854606;29;20041;-77
2023/04/26 00:41:12;;;;;;;6.03;1.35;;;;;;;;;;4838478;29;20440;-77
2023/04/26 00:43:39;;;;;;;5.60;1.40;;;;;;;;;;4850072;29;20029;-77
2023/04/26 00:46:06;;;;;;;8.65;1.77;;;;;;;;;;4855273;29;20173;-77
2023/04/26 00:48:32;;;;;;;7.10;1.92;;;;;;;;;;4851395;29;20038;-77
2023/04/26 00:50:58;;;;;;;6.50;1.63;;;;;;;;;;4854828;29;20091;-77
2023/04/26 00:53:25;;;;;;;5.72;2.33;;;;;;;;;;4852644;29;20033;-77
2023/04/26 00:55:51;;;;;;;4.85;1.20;;;;;;;;;;4855300;29;20131;-77
2023/04/26 00:58:17;;;;;;;5.28;1.35;;;;;;;;;;4853491;29;20128;-77
2023/04/26 01:00:44;;;;;;;10.05;1.52;;;;;;;;;;4851858;29;20045;-77
2023/04/26 01:03:13;;;;;;;7.95;1.63;;;;;;;;;;4854206;29;20034;-77
2023/04/26 01:05:39;;;;;;;39.65;1.88;;;;;;;;;;4851514;29;20194;-77
2023/04/26 01:08:05;;;;;;;6.53;1.58;;;;;;;;;;4853865;29;20075;-78
2023/04/26 01:10:35;;;;;;;12.10;1.67;;;;;;;;;;4856083;29;20030;-78
2023/04/26 01:13:04;;;;;;;8.63;1.70;;;;;;;;;;4855392;29;20034;-77
2023/04/26 01:15:32;;;;;;;10.68;1.55;;;;;;;;;;4855473;29;20295;-77
2023/04/26 01:17:58;;;;;;;12.50;1.52;;;;;;;;;;4849875;29;20037;-77
2023/04/26 01:20:25;;;;;;;6.68;1.50;;;;;;;;;;4848700;29;20037;-77
2023/04/26 01:22:51;;;;;;;3.88;1.55;;;;;;;;;;4852448;29;20029;-77
2023/04/26 01:25:18;;;;;;;5.88;2.53;;;;;;;;;;4854884;29;20391;-77
2023/04/26 01:27:44;;;;;;;7.57;1.50;;;;;;;;;;4852957;29;20037;-77
2023/04/26 01:30:11;;;;;;;10.27;2.85;;;;;;;;;;4845903;29;20029;-77
2023/04/26 01:32:37;;;;;;;8.75;2.47;;;;;;;;;;4847188;29;20077;-78
2023/04/26 01:35:04;;;;;;;8.93;1.30;;;;;;;;;;4852517;29;20052;-77
2023/04/26 01:37:30;;;;;;;8.88;1.88;;;;;;;;;;4852248;29;20065;-77
2023/04/26 01:39:56;;;;;;;13.20;2.55;;;;;;;;;;4854575;29;20041;-78
2023/04/26 01:42:22;;;;;;;9.85;1.63;;;;;;;;;;4851570;29;20451;-78
2023/04/26 01:44:48;;;;;;;8.90;1.60;;;;;;;;;;4852175;29;20441;-78
2023/04/26 01:47:14;;;;;;;8.43;1.83;;;;;;;;;;4850880;29;20042;-77
2023/04/26 01:49:41;;;;;;;7.28;1.77;;;;;;;;;;4852840;29;20045;-77
2023/04/26 01:52:07;;;;;;;7.07;1.40;;;;;;;;;;4852443;29;20041;-77
2023/04/26 01:54:33;;;;;;;8.88;1.50;;;;;;;;;;4855539;29;20038;-77
2023/04/26 01:56:59;;;;;;;4.47;1.42;;;;;;;;;;4852626;29;20038;-77
2023/04/26 01:59:25;;;;;;;9.23;1.77;;;;;;;;;;4853532;29;20037;-77
2023/04/26 02:01:51;;;;;;;6.70;1.70;;;;;;;;;;4849908;29;20092;-77
2023/04/26 02:04:17;;;;;;;11.05;1.92;;;;;;;;;;4834601;29;20038;-77
2023/04/26 02:06:43;;;;;;;6.35;1.63;;;;;;;;;;4847743;29;20033;-77
2023/04/26 02:09:10;;;;;;;5.70;1.60;;;;;;;;;;4851224;29;20033;-78
2023/04/26 02:11:36;;;;;;;8.52;1.80;;;;;;;;;;4849034;29;20403;-77
2023/04/26 02:14:02;;;;;;;5.50;1.60;;;;;;;;;;4854070;29;20034;-76
2023/04/26 02:16:28;;;;;;;11.68;1.60;;;;;;;;;;4839449;29;21077;-77
2023/04/26 02:18:54;;;;;;;7.65;2.28;;;;;;;;;;4848719;29;20041;-77
2023/04/26 02:21:21;;;;;;;10.48;2.45;;;;;;;;;;4851844;29;20068;-77
2023/04/26 02:23:47;;;;;;;4.97;1.98;;;;;;;;;;4849106;29;20042;-76
2023/04/26 02:26:13;;;;;;;7.10;1.95;;;;;;;;;;4851682;29;20094;-75
2023/04/26 02:28:40;;;;;;;5.80;2.05;;;;;;;;;;4851546;29;20143;-76
2023/04/26 02:31:06;;;;;;;9.63;2.10;;;;;;;;;;4856321;29;20032;-76
2023/04/26 02:33:33;;;;;;;6.40;2.28;;;;;;;;;;4853431;29;20065;-75
2023/04/26 02:36:02;;;;;;;6.45;2.00;;;;;;;;;;4850693;29;20108;-76
2023/04/26 02:38:28;;;;;;;6.43;2.17;;;;;;;;;;4849884;29;20491;-76
2023/04/26 02:41:00;;;;;;;8.80;1.95;;;;;;;;;;4855595;29;20505;-76
2023/04/26 02:43:26;;;;;;;;;;;;;;;;;;4844556;29;20044;-76
2023/04/26 02:45:52;;;;;;;8.50;1.77;;;;;;;;;;4847624;29;21906;-76
2023/04/26 02:48:19;;;;;;;3.72;1.67;;;;;;;;;;4851364;29;20030;-76
2023/04/26 02:50:45;;;;;;;9.18;2.10;;;;;;;;;;4853257;29;20042;-76
2023/04/26 02:53:11;;;;;;;7.88;1.85;;;;;;;;;;4851873;29;20444;-76
2023/04/26 02:55:41;;;;;;;15.25;2.80;;;;;;;;;;4854059;29;20036;-76
2023/04/26 02:58:08;;;;;;;4.57;1.88;;;;;;;;;;4854613;29;20037;-78
2023/04/26 03:00:34;;;;;;;8.75;1.83;;;;;;;;;;4858984;29;20044;-76
2023/04/26 03:03:01;;;;;;;8.73;1.92;;;;;;;;;;4854207;29;20080;-76
2023/04/26 03:05:27;;;;;;;10.93;1.85;;;;;;;;;;4846537;29;20440;-76
2023/04/26 03:07:53;;;;;;;8.27;2.38;;;;;;;;;;4855970;29;20092;-76
2023/04/26 03:10:19;;;;;;;7.28;1.67;;;;;;;;;;4855982;29;20053;-76
2023/04/26 03:12:47;;;;;;;8.35;1.88;;;;;;;;;;4857589;29;20040;-77
2023/04/26 03:15:13;;;;;;;6.18;1.50;;;;;;;;;;4856462;29;20051;-76
2023/04/26 03:17:40;;;;;;;6.03;2.35;;;;;;;;;;4857502;29;20044;-76
2023/04/26 03:20:09;;;;;;;5.32;1.98;;;;;;;;;;4854264;29;20072;-76
2023/04/26 03:22:35;;;;;;;8.23;1.77;;;;;;;;;;4840237;29;21517;-76
2023/04/26 03:25:04;;;;;;;9.85;1.70;;;;;;;;;;4852771;29;20093;-76
2023/04/26 03:27:30;;;;;;;8.65;1.67;;;;;;;;;;4856598;29;20129;-77
2023/04/26 03:29:56;;;;;;;8.05;1.70;;;;;;;;;;4855910;29;20049;-77
2023/04/26 03:32:22;;;;;;;9.52;1.63;;;;;;;;;;4858511;29;20119;-77
2023/04/26 03:34:50;;;;;;;7.25;1.75;;;;;;;;;;4854870;29;20048;-77
2023/04/26 03:37:16;;;;;;;5.30;1.70;;;;;;;;;;4837214;29;20105;-77
2023/04/26 03:39:42;;;;;;;7.10;1.73;;;;;;;;;;4852682;29;20026;-77
2023/04/26 03:42:08;;;;;;;5.95;1.67;;;;;;;;;;4853685;29;20651;-77
2023/04/26 03:44:34;;;;;;;10.07;2.58;;;;;;;;;;4852689;29;20060;-77
2023/04/26 03:47:01;;;;;;;4.30;1.88;;;;;;;;;;4857696;29;20025;-76
2023/04/26 03:49:27;;;;;;;4.70;1.45;;;;;;;;;;4856274;29;20049;-76
2023/04/26 03:51:53;;;;;;;7.28;3.03;;;;;;;;;;4852139;29;20048;-76
2023/04/26 03:54:19;;;;;;;8.48;2.42;;;;;;;;;;4855142;29;20037;-76
2023/04/26 03:56:45;;;;;;;4.20;1.70;;;;;;;;;;4853504;29;20038;-76
2023/04/26 03:59:11;;;;;;;6.60;1.63;;;;;;;;;;4852346;29;20049;-76
2023/04/26 04:01:39;;;;;;;8.85;2.35;;;;;;;;;;4852711;29;20045;-75
2023/04/26 04:04:05;;;;;;;9.77;2.05;;;;;;;;;;4855173;29;20037;-78
2023/04/26 04:06:32;;;;;;;7.22;1.90;;;;;;;;;;4848493;29;20049;-80
2023/04/26 04:08:58;;;;;;;7.32;2.00;;;;;;;;;;4847778;29;20049;-80
2023/04/26 04:11:24;;;;;;;7.45;2.10;;;;;;;;;;4852668;29;20057;-77
2023/04/26 04:13:50;;;;;;;9.48;4.15;;;;;;;;;;4853748;29;20045;-77
2023/04/26 04:16:16;;;;;;;8.57;3.03;;;;;;;;;;4856324;29;20037;-79
2023/04/26 04:18:42;;;;;;;4.18;3.20;;;;;;;;;;4849005;29;20046;-78
2023/04/26 04:21:08;;;;;;;10.52;2.10;;;;;;;;;;4854729;29;20476;-81
2023/04/26 04:23:34;;;;;;;5.57;3.15;;;;;;;;;;4856403;29;20383;-80
2023/04/26 04:26:02;;;;;;;10.98;3.95;;;;;;;;;;4852560;29;20044;-78
2023/04/26 04:28:28;;;;;;;8.15;2.97;;;;;;;;;;4854583;29;20060;-77
2023/04/26 04:30:55;;;;;;;9.95;2.90;;;;;;;;;;4851169;29;20064;-77
2023/04/26 04:33:22;;;;;;;6.90;2.53;;;;;;;;;;4855717;29;20049;-77
2023/04/26 04:35:48;;;;;;;9.38;2.38;;;;;;;;;;4823286;29;20065;-77
2023/04/26 04:38:14;;;;;;;7.97;2.13;;;;;;;;;;4814489;29;20396;-78
2023/04/26 04:40:40;;;;;;;7.07;1.80;;;;;;;;;;4808485;29;20038;-81
2023/04/26 04:43:06;;;;;;;10.10;2.40;;;;;;;;;;4815156;29;20101;-80
2023/04/26 04:45:32;;;;;;;22.48;4.25;;;;;;;;;;4813463;29;20474;-79
2023/04/26 04:47:58;;;;;;;8.27;2.50;;;;;;;;;;4816321;29;20492;-81
2023/04/26 04:50:24;;;;;;;6.05;2.53;;;;;;;;;;4812204;29;20480;-77
2023/04/26 04:52:50;;;;;;;6.55;2.30;;;;;;;;;;4814824;29;20042;-82
2023/04/26 04:55:17;;;;;;;11.38;3.67;;;;;;;;;;4816024;29;20049;-81
2023/04/26 04:57:43;;;;;;;13.05;3.22;;;;;;;;;;4811148;29;20050;-81
2023/04/26 05:00:09;;;;;;;8.13;2.08;;;;;;;;;;4813308;29;20541;-80
2023/04/26 05:02:37;;;;;;;6.20;2.15;;;;;;;;;;4820631;29;20181;-79
2023/04/26 05:05:03;;;;;;;11.93;2.90;;;;;;;;;;4817718;29;20057;-77
2023/04/26 05:07:31;;;;;;;6.25;2.33;;;;;;;;;;4814855;29;20103;-81
2023/04/26 05:09:57;;;;;;;9.80;2.30;;;;;;;;;;4817030;29;20033;-78
2023/04/26 05:12:23;;;;;;;8.43;2.60;;;;;;;;;;4813957;29;20471;-78
2023/04/26 05:14:49;;;;;;;11.38;3.05;;;;;;;;;;4830415;29;20384;-78
2023/04/26 05:17:15;;;;;;;8.57;2.15;;;;;;;;;;4818768;29;20408;-79
2023/04/26 05:19:43;;;;;;;7.22;2.45;;;;;;;;;;4813321;29;20034;-78
2023/04/26 05:22:09;;;;;;;6.00;2.40;;;;;;;;;;4819573;29;20058;-82
2023/04/26 05:24:35;;;;;;;10.82;2.78;;;;;;;;;;4813329;29;20030;-81
2023/04/26 05:27:03;;;;;;;3.58;2.38;;;;;;;;;;4810313;29;20213;-82
2023/04/26 05:29:32;;;;;;;8.18;2.63;;;;;;;;;;4816295;29;20061;-82
2023/04/26 05:31:58;;;;;;;7.25;2.42;;;;;;;;;;4833743;29;20180;-81
2023/04/26 05:34:24;;;;;;;6.60;2.80;;;;;;;;;;4814743;29;20098;-82
2023/04/26 05:36:50;;;;;;;6.13;2.17;;;;;;;;;;4826285;29;20058;-79
2023/04/26 05:39:18;;;;;;;7.35;2.20;;;;;;;;;;4814345;29;20039;-82
2023/04/26 05:41:44;;;;;;;9.13;2.25;;;;;;;;;;4806185;29;20042;-81
2023/04/26 05:44:11;;;;;;;8.35;1.85;;;;;;;;;;4821346;29;20434;-78
2023/04/26 05:46:37;;;;;;;5.22;2.20;;;;;;;;;;4815267;29;20043;-78
2023/04/26 05:49:03;;;;;;;9.00;1.83;;;;;;;;;;4820756;29;20449;-80
2023/04/26 05:51:30;;;;;;;9.45;2.10;;;;;;;;;;4809424;29;20388;-77
2023/04/26 05:53:56;;;;;;;3.05;2.15;;;;;;;;;;4812278;29;20086;-81
2023/04/26 05:56:23;;;;;;;6.88;3.67;;;;;;;;;;4817889;29;20038;-81
2023/04/26 05:58:49;;;;;;;6.57;3.80;;;;;;;;;;4816826;29;20041;-77
2023/04/26 06:01:15;;;;;;;10.52;2.30;;;;;;;;;;4809880;29;20094;-80
2023/04/26 06:03:42;;;;;;;5.40;1.90;;;;;;;;;;4813929;29;20503;-78
2023/04/26 06:06:08;;;;;;;7.72;1.70;;;;;;;;;;4810706;29;20045;-80
2023/04/26 06:08:34;;;;;;;3.67;2.28;;;;;;;;;;4806222;29;20046;-80
2023/04/26 06:11:00;;;;;;;9.40;1.98;;;;;;;;;;4807929;29;20035;-81
2023/04/26 06:13:26;;;;;;;9.30;2.67;;;;;;;;;;4807142;29;20496;-78
2023/04/26 06:15:53;;;;;;;6.53;2.08;;;;;;;;;;4812096;29;20404;-81
2023/04/26 06:18:20;;;;;;;9.70;2.13;;;;;;;;;;4811938;29;20062;-77
2023/04/26 06:20:47;;;;;;;8.30;2.58;;;;;;;;;;4812988;29;20087;-83
2023/04/26 06:23:13;;;;;;;5.32;1.50;;;;;;;;;;4813259;29;20125;-80
2023/04/26 06:25:43;;;;;;;5.65;1.67;;;;;;;;;;4816081;29;20050;-84
2023/04/26 06:28:09;;;;;;;5.40;1.30;;;;;;;;;;4813348;29;20472;-79
2023/04/26 06:30:36;;;;;;;7.78;2.15;;;;;;;;;;4813952;29;20388;-83
2023/04/26 06:33:02;;;;;;;8.90;1.20;;;;;;;;;;4819445;29;20476;-84
2023/04/26 06:35:28;;;;;;;10.63;1.58;;;;;;;;;;4815952;29;20061;-83
2023/04/26 06:37:54;;;;;;;5.10;1.40;;;;;;;;;;4864241;29;20060;-82
2023/04/26 06:40:20;;;;;;;9.23;2.08;;;;;;;;;;4854075;29;20128;-80
2023/04/26 06:42:47;;;;;;;5.57;1.65;;;;;;;;;;4854794;29;20056;-81
2023/04/26 06:45:13;;;;;;;7.32;1.48;;;;;;;;;;4854250;29;20049;-82
2023/04/26 06:47:39;;;;;;;6.95;1.70;;;;;;;;;;4857269;29;20051;-75
2023/04/26 06:50:05;;;;;;;6.45;1.65;;;;;;;;;;4851693;29;20462;-80
2023/04/26 06:52:31;;;;;;;9.27;1.60;;;;;;;;;;4857664;29;20093;-82
2023/04/26 06:55:00;;;;;;;11.27;2.58;;;;;;;;;;4842266;29;20445;-78
2023/04/26 06:57:26;;;;;;;7.68;1.50;;;;;;;;;;4849671;29;20049;-79
2023/04/26 06:59:53;;;;;;;3.95;1.13;;;;;;;;;;4850527;29;20044;-80
2023/04/26 07:02:19;;;;;;;7.60;2.05;;;;;;;;;;4855881;29;20030;-80
2023/04/26 07:04:45;;;;;;;6.03;1.17;;;;;;;;;;4855132;29;20057;-79
2023/04/26 07:07:11;;;;;;;7.45;1.25;;;;;;;;;;4856160;29;20053;-79
2023/04/26 07:09:37;;;;;;;3.10;1.38;;;;;;;;;;4854216;29;20030;-74
2023/04/26 07:12:03;;;;;;;5.55;1.50;;;;;;;;;;4849436;29;20030;-74
2023/04/26 07:14:30;;;;;;;5.25;0.98;;;;;;;;;;4860845;29;20030;-74
2023/04/26 07:16:56;;;;;;;9.80;1.95;;;;;;;;;;4861269;29;20041;-74
2023/04/26 07:19:22;;;;;;;4.45;1.20;;;;;;;;;;4858148;29;20037;-74
2023/04/26 07:21:48;;;;;;;6.18;1.13;;;;;;;;;;4835267;29;20106;-74
2023/04/26 07:24:14;;;;;;;5.43;1.38;;;;;;;;;;4857828;29;20041;-74
2023/04/26 07:26:41;;;;;;;6.80;1.20;;;;;;;;;;4849973;29;20041;-74
2023/04/26 07:29:07;;;;;;;12.45;1.77;;;;;;;;;;4848513;29;20406;-74
2023/04/26 07:31:34;;;;;;;8.20;1.25;;;;;;;;;;4853701;29;20029;-74
2023/04/26 07:34:00;;;;;;;4.82;0.95;;;;;;;;;;4843484;29;20049;-74
2023/04/26 07:36:27;;;;;;;6.47;1.40;;;;;;;;;;4831033;29;20090;-74
2023/04/26 07:38:53;;;;;;;6.07;1.20;;;;;;;;;;4821214;29;20465;-74
2023/04/26 07:41:19;;;;;;;5.80;1.15;;;;;;;;;;4812004;29;20062;-74
2023/04/26 07:43:45;;;;;;;8.32;1.60;;;;;;;;;;4823786;29;20042;-74
2023/04/26 07:46:11;;;;;;;6.07;1.08;;;;;;;;;;4830384;29;20069;-74
2023/04/26 07:48:37;;;;;;;6.03;1.40;;;;;;;;;;4822380;29;20050;-74
2023/04/26 07:51:07;;;;;;;4.47;1.25;;;;;;;;;;4819399;29;20035;-74
2023/04/26 07:53:34;;;;;;;4.50;1.38;;;;;;;;;;4841753;29;20045;-74
2023/04/26 07:56:00;;;;;;;6.53;1.20;;;;;;;;;;4830344;29;20125;-74
2023/04/26 07:58:27;;;;;;;8.35;1.30;;;;;;;;;;4821296;29;20117;-73
2023/04/26 08:00:53;;;;;;;3.03;1.15;;;;;;;;;;4827918;29;20042;-74
2023/04/26 08:03:20;;;;;;;4.97;1.10;;;;;;;;;;4840720;29;20034;-73
2023/04/26 08:05:46;;;;;;;8.73;1.25;;;;;;;;;;4817784;29;20450;-74
2023/04/26 08:08:12;;;;;;;10.20;1.30;;;;;;;;;;4827830;29;20037;-73
2023/04/26 08:10:41;;;;;;;7.70;1.83;;;;;;;;;;4835496;29;20034;-73
2023/04/26 08:13:08;;;;;;;5.72;1.23;;;;;;;;;;4805751;29;20083;-73
2023/04/26 08:15:34;;;;;;;5.10;1.25;;;;;;;;;;4805885;29;20027;-73
2023/04/26 08:18:01;;;;;;;11.82;1.88;;;;;;;;;;4811298;29;20035;-73
2023/04/26 08:20:27;;;;;;;8.77;1.60;;;;;;;;;;4820587;29;20034;-73
2023/04/26 08:22:56;;;;;;;4.10;1.55;;;;;;;;;;4807102;29;20038;-73
2023/04/26 08:25:23;;;;;;;7.00;1.23;;;;;;;;;;4811497;29;20095;-73
2023/04/26 08:27:49;;;;;;;9.05;1.60;;;;;;;;;;4820170;29;20038;-73
2023/04/26 08:30:16;;;;;;;4.68;1.25;;;;;;;;;;4822361;29;20053;-73
2023/04/26 08:32:42;;;;;;;6.15;1.00;;;;;;;;;;4805153;29;20027;-73
2023/04/26 08:35:08;;;;;;;4.60;1.10;;;;;;;;;;4810645;29;20592;-73
2023/04/26 08:37:35;;;;;;;11.38;2.28;;;;;;;;;;4856397;29;20053;-74
2023/04/26 08:40:02;;;;;;;5.20;1.02;;;;;;;;;;4859062;29;20112;-73
2023/04/26 08:42:28;;;;;;;6.15;1.00;;;;;;;;;;4854869;29;20112;-73
2023/04/26 08:44:55;;;;;;;4.75;1.25;;;;;;;;;;4858681;29;20097;-73
2023/04/26 08:47:31;;;;;;;6.40;1.48;;;;;;;;;;4829869;29;20484;-73
2023/04/26 08:49:58;;;;;;;10.48;1.50;;;;;;;;;;4853125;29;20033;-73
2023/04/26 08:52:27;;;;;;;4.95;1.40;;;;;;;;;;4854600;29;20030;-73
2023/04/26 08:54:54;;;;;;;7.25;1.88;;;;;;;;;;4858449;29;20033;-72
2023/04/26 08:57:34;;;;;;;6.32;1.70;;;;;;;;;;4828264;29;20042;-73
2023/04/26 09:00:18;;;;;;;5.60;2.25;;;;;;;;;;4850559;29;20041;-73
2023/04/26 09:02:48;;;;;;;10.27;2.33;;;;;;;;;;4870167;29;20506;-74
2023/04/26 09:05:15;;;;;;;4.63;1.30;;;;;;;;;;4864622;29;20037;-73
2023/04/26 09:07:45;;;;;;;8.02;1.35;;;;;;;;;;4835746;29;20037;-73
2023/04/26 09:10:12;;;;;;;4.72;1.80;;;;;;;;;;4855823;29;20505;-73
2023/04/26 09:12:38;;;;;;;10.27;1.67;;;;;;;;;;4839792;29;20121;-73
2023/04/26 09:15:06;;;;;;;5.10;1.25;;;;;;;;;;4858501;29;20085;-73
2023/04/26 09:17:36;;;;;;;9.95;2.22;;;;;;;;;;4858573;29;20036;-74
2023/04/26 09:20:17;;;;;;;4.63;1.50;;;;;;;;;;4844693;29;20040;-73
2023/04/26 09:22:43;;;;;;;9.80;2.03;;;;;;;;;;4846561;29;20045;-73
2023/04/26 09:25:12;;;;;;;6.60;2.08;;;;;;;;;;4857983;29;20042;-74
2023/04/26 09:27:39;;;;;;;9.77;1.50;;;;;;;;;;4831517;29;20029;-73
2023/04/26 09:30:06;;;;;;;5.50;1.70;;;;;;;;;;4856912;29;20038;-73
2023/04/26 09:32:48;;;;;;;5.15;1.40;;;;;;;;;;4855166;29;20116;-73
2023/04/26 09:35:25;;;;;;;5.28;1.45;;;;;;;;;;4856247;29;20046;-73
2023/04/26 09:37:55;;;;;;;9.30;1.30;;;;;;;;;;4830022;29;20074;-73
2023/04/26 09:40:21;;;;;;;11.27;2.00;;;;;;;;;;4838578;29;20216;-73
2023/04/26 09:42:55;;;;;;;10.15;1.92;;;;;;;;;;4834837;29;20049;-73
2023/04/26 09:45:22;;;;;;;10.05;1.73;;;;;;;;;;4817131;29;20058;-73
2023/04/26 09:47:48;;;;;;;5.15;1.80;;;;;;;;;;4823250;29;20045;-71
2023/04/26 09:50:25;;;;;;;6.78;1.27;;;;;;;;;;4829879;29;20050;-74
2023/04/26 09:52:51;;;;;;;6.30;1.77;;;;;;;;;;4828842;29;20038;-75
2023/04/26 09:55:27;;;;;;;7.90;2.22;;;;;;;;;;4834039;29;20058;-75
2023/04/26 09:57:55;;;;;;;6.63;1.63;;;;;;;;;;4834582;29;20041;-75
2023/04/26 10:00:22;;;;;;;11.30;3.40;;;;;;;;;;4826184;29;20049;-80
2023/04/26 10:02:48;;;;;;;7.97;1.65;;;;;;;;;;4838853;29;20365;-81
2023/04/26 10:05:15;;;;;;;12.88;3.60;;;;;;;;;;4839709;29;20068;-78
2023/04/26 10:07:41;;;;;;;8.32;1.63;;;;;;;;;;4835144;29;20034;-81
2023/04/26 10:10:07;;;;;;;13.65;2.13;;;;;;;;;;4831548;29;20144;-82
2023/04/26 10:12:34;;;;;;;5.50;1.77;;;;;;;;;;4836222;29;20058;-80
2023/04/26 10:15:00;;;;;;;6.07;1.48;;;;;;;;;;4820603;29;20139;-78
2023/04/26 10:17:27;;;;;;;6.53;1.90;;;;;;;;;;4836979;29;20454;-77
2023/04/26 10:19:56;;;;;;;9.60;2.17;;;;;;;;;;4832315;29;20045;-78
2023/04/26 10:22:28;;;;;;;6.93;1.50;;;;;;;;;;4839358;29;20121;-79
2023/04/26 10:24:55;;;;;;;6.65;1.80;;;;;;;;;;4835275;29;20106;-78
2023/04/26 10:27:40;;;;;;;7.82;1.85;;;;;;;;;;4838496;29;20156;-78
2023/04/26 10:30:12;;;;;;;6.10;1.42;;;;;;;;;;4834843;29;20046;-79
2023/04/26 10:32:57;;;;;;;6.82;1.50;;;;;;;;;;4839394;29;20030;-82
2023/04/26 10:35:24;;;;;;;6.32;1.73;;;;;;;;;;4837484;29;20042;-77
2023/04/26 10:38:03;;;;;;;6.28;1.45;;;;;;;;;;4839597;29;20069;-77
2023/04/26 10:40:30;;;;;;;4.97;1.50;;;;;;;;;;4837182;29;20038;-80
2023/04/26 10:43:18;;;;;;;11.13;4.32;;;;;;;;;;4840474;29;20022;-76
2023/04/26 10:45:48;;;;;;;5.47;2.10;;;;;;;;;;4832686;29;20042;-80
2023/04/26 10:48:18;;;;;;;11.82;1.73;;;;;;;;;;4840607;29;20041;-80
2023/04/26 10:51:11;;;;;;;3.45;1.40;;;;;;;;;;4840427;29;20057;-80
2023/04/26 10:53:46;;;;;;;7.45;1.48;;;;;;;;;;4841021;29;20038;-79
2023/04/26 10:56:27;;;;;;;8.13;2.13;;;;;;;;;;4843055;29;20059;-77
2023/04/26 10:59:08;;;;;;;3.83;1.42;;;;;;;;;;4837142;29;20030;-78
2023/04/26 11:01:35;;;;;;;3.50;1.25;;;;;;;;;;4851608;29;20089;-79
2023/04/26 11:04:07;;;;;;;6.32;1.38;;;;;;;;;;4841704;29;20022;-80
2023/04/26 11:06:52;;;;;;;5.18;1.30;;;;;;;;;;4834732;29;20128;-81
2023/04/26 11:09:36;;;;;;;5.50;1.70;;;;;;;;;;4841365;29;20392;-79
2023/04/26 11:12:06;;;;;;;5.18;1.48;;;;;;;;;;4840189;29;20033;-77
2023/04/26 11:14:35;;;;;;;6.88;1.50;;;;;;;;;;4834765;29;20038;-76
2023/04/26 11:17:11;;;;;;;8.90;1.60;;;;;;;;;;4831159;29;20464;-76
2023/04/26 11:19:37;;;;;;;8.55;1.65;;;;;;;;;;4840212;29;20052;-76
2023/04/26 11:22:06;;;;;;;8.32;1.77;;;;;;;;;;4838590;29;20038;-77
2023/04/26 11:24:35;;;;;;;6.28;2.10;;;;;;;;;;4832525;29;20968;-76
2023/04/26 11:27:08;;;;;;;8.75;2.53;;;;;;;;;;4838876;29;20160;-76
2023/04/26 11:29:34;;;;;;;9.27;3.90;;;;;;;;;;4833130;29;20026;-81
2023/04/26 11:32:02;;;;;;;60.28;32.70;;;;;;;;;;4845757;29;20970;-79
2023/04/26 11:34:33;;;;;;;7.60;1.50;;;;;;;;;;4833349;29;20120;-79
2023/04/26 11:36:59;;;;;;;3.63;1.60;;;;;;;;;;4850404;29;20042;-80
2023/04/26 11:39:26;;;;;;;6.32;2.13;;;;;;;;;;4851070;29;20034;-80
2023/04/26 11:42:05;;;;;;;4.35;2.13;;;;;;;;;;4851156;29;20075;-79
2023/04/26 11:44:32;;;;;;;4.03;1.75;;;;;;;;;;4847613;29;20045;-75
2023/04/26 11:47:02;;;;;;;5.80;1.63;;;;;;;;;;4854706;29;20478;-76
2023/04/26 11:49:29;;;;;;;6.88;1.60;;;;;;;;;;4853792;29;20034;-75
2023/04/26 11:51:55;;;;;;;5.80;1.38;;;;;;;;;;4839278;29;20089;-76
2023/04/26 11:54:36;;;;;;;10.90;2.35;;;;;;;;;;4852118;29;20048;-76
2023/04/26 11:57:13;;;;;;;6.13;1.65;;;;;;;;;;4855608;29;20440;-76
2023/04/26 11:59:39;;;;;;;6.25;1.75;;;;;;;;;;4860730;29;20026;-76
2023/04/26 12:02:06;;;;;;;2.85;1.30;;;;;;;;;;4856024;29;20037;-76
2023/04/26 12:04:32;;;;;;;7.78;1.45;;;;;;;;;;4853463;29;20411;-78
2023/04/26 12:06:59;;;;;;;3.78;1.70;;;;;;;;;;4846449;29;20125;-77
2023/04/26 12:09:28;;;;;;;5.47;1.60;;;;;;;;;;4864329;29;20330;-77
2023/04/26 12:11:58;;;;;;;8.52;1.80;;;;;;;;;;4867242;29;20029;-76
2023/04/26 12:14:34;;;;;;;14.05;2.63;;;;;;;;;;4825236;29;20026;-76
2023/04/26 12:17:01;;;;;;;7.07;1.30;;;;;;;;;;4865778;29;20052;-76
2023/04/26 12:19:28;;;;;;;6.07;1.83;;;;;;;;;;4839091;29;20032;-76
2023/04/26 12:21:54;;;;;;;5.78;1.38;;;;;;;;;;4854948;29;20069;-76
2023/04/26 12:24:35;;;;;;;6.18;1.25;;;;;;;;;;4851353;29;20072;-76
2023/04/26 12:27:03;;;;;;;8.07;1.73;;;;;;;;;;4858647;29;20041;-77
2023/04/26 12:29:30;;;;;;;8.82;1.50;;;;;;;;;;4841169;29;20038;-77
2023/04/26 12:31:57;;;;;;;6.20;1.48;;;;;;;;;;4858701;29;20126;-77
2023/04/26 12:34:23;;;;;;;7.18;1.73;;;;;;;;;;4840363;29;20049;-76
2023/04/26 12:36:49;;;;;;;4.70;1.42;;;;;;;;;;4841528;29;20099;-77
2023/04/26 12:39:15;;;;;;;7.28;1.52;;;;;;;;;;4848801;29;20029;-77
2023/04/26 12:41:42;;;;;;;2.70;1.10;;;;;;;;;;4858771;29;20041;-76
2023/04/26 12:44:09;;;;;;;5.35;1.20;;;;;;;;;;4841824;29;20065;-76
2023/04/26 12:46:35;;;;;;;6.22;1.40;;;;;;;;;;4856028;29;20056;-76
2023/04/26 12:49:02;;;;;;;4.20;1.02;;;;;;;;;;4855914;29;20033;-77
2023/04/26 12:51:28;;;;;;;4.95;1.05;;;;;;;;;;4854059;29;20040;-76
2023/04/26 12:53:55;;;;;;;5.75;1.00;;;;;;;;;;4853069;29;20037;-76
2023/04/26 12:56:21;;;;;;;5.88;1.08;;;;;;;;;;4857320;29;20034;-76
2023/04/26 12:58:48;;;;;;;6.65;0.95;;;;;;;;;;4842075;29;20030;-76
2023/04/26 13:01:15;;;;;;;7.00;2.17;;;;;;;;;;4855012;29;20030;-77
2023/04/26 13:03:41;;;;;;;5.93;1.10;;;;;;;;;;4847228;29;20037;-75
2023/04/26 13:06:08;;;;;;;4.53;1.02;;;;;;;;;;4839527;29;20056;-75
2023/04/26 13:08:34;;;;;;;2.97;0.77;;;;;;;;;;4847765;29;20048;-76
2023/04/26 13:11:00;;;;;;;6.00;1.05;;;;;;;;;;4845799;29;20455;-76
2023/04/26 13:13:26;;;;;;;4.38;1.15;;;;;;;;;;4843909;29;20506;-75
2023/04/26 13:15:52;;;;;;;6.47;1.50;;;;;;;;;;4862497;29;20109;-75
2023/04/26 13:18:18;;;;;;;8.73;1.38;;;;;;;;;;4859727;29;20038;-75
2023/04/26 13:20:45;;;;;;;4.15;1.45;;;;;;;;;;4844617;29;20041;-77
2023/04/26 13:23:11;;;;;;;10.27;1.38;;;;;;;;;;4843457;29;20272;-77
2023/04/26 13:25:37;;;;;;;8.00;1.50;;;;;;;;;;4876368;29;20033;-77
2023/04/26 13:28:04;;;;;;;5.70;1.40;;;;;;;;;;4863191;29;20030;-77
2023/04/26 13:30:30;;;;;;;4.47;0.90;;;;;;;;;;4856679;29;20036;-78
2023/04/26 13:32:56;;;;;;;4.68;1.40;;;;;;;;;;4855641;29;20026;-78
2023/04/26 13:35:22;;;;;;;4.03;1.10;;;;;;;;;;4857464;29;20050;-77
2023/04/26 13:37:52;;;;;;;5.13;1.25;;;;;;;;;;4850181;29;20065;-77
2023/04/26 13:40:20;;;;;;;1.90;1.10;;;;;;;;;;4817665;29;20614;-77
2023/04/26 13:42:47;;;;;;;3.22;1.58;;;;;;;;;;4855634;29;20204;-77
2023/04/26 13:45:13;;;;;;;4.82;1.35;;;;;;;;;;4841534;29;20413;-78
2023/04/26 13:47:39;;;;;;;4.70;1.35;;;;;;;;;;4864552;29;20501;-77
2023/04/26 13:50:05;;;;;;;7.88;1.83;;;;;;;;;;4858784;29;20037;-78
2023/04/26 13:52:31;;;;;;;2.60;1.00;;;;;;;;;;4840733;29;20039;-78
2023/04/26 13:54:57;;;;;;;5.35;2.17;;;;;;;;;;4853261;29;20037;-77
2023/04/26 13:57:23;;;;;;;7.63;1.02;;;;;;;;;;4839906;29;20497;-78
2023/04/26 13:59:50;;;;;;;4.18;1.67;;;;;;;;;;4850668;29;20046;-78
2023/04/26 14:02:16;;;;;;;3.40;1.45;;;;;;;;;;4869616;29;20036;-78
2023/04/26 14:04:42;;;;;;;4.63;1.15;;;;;;;;;;4835339;29;20094;-77
2023/04/26 14:07:09;;;;;;;5.28;1.77;;;;;;;;;;4858258;29;20045;-79
2023/04/26 14:09:35;;;;;;;10.38;1.35;;;;;;;;;;4845510;29;20083;-78
2023/04/26 14:12:01;;;;;;;6.10;2.22;;;;;;;;;;4855101;29;20045;-77
2023/04/26 14:14:29;;;;;;;6.85;1.30;;;;;;;;;;4843749;29;20068;-77
2023/04/26 14:16:55;;;;;;;4.60;1.00;;;;;;;;;;4872421;29;20063;-77
2023/04/26 14:19:24;;;;;;;5.60;1.20;;;;;;;;;;4849109;29;20395;-78
2023/04/26 14:21:51;;;;;;;6.00;1.25;;;;;;;;;;4851229;29;20065;-77
2023/04/26 14:24:17;;;;;;;3.92;1.40;;;;;;;;;;4844948;29;20034;-77
2023/04/26 14:26:43;;;;;;;5.95;1.63;;;;;;;;;;4844256;29;20487;-77
2023/04/26 14:29:10;;;;;;;2.78;1.10;;;;;;;;;;4848532;29;20491;-76
2023/04/26 14:31:36;;;;;;;4.70;1.23;;;;;;;;;;4863093;29;20037;-78
2023/04/26 14:34:02;;;;;;;7.57;1.35;;;;;;;;;;4847431;29;20045;-76
2023/04/26 14:36:28;;;;;;;3.78;1.20;;;;;;;;;;4839811;29;20054;-75
2023/04/26 14:38:54;;;;;;;4.32;0.90;;;;;;;;;;4840179;29;20042;-75
2023/04/26 14:41:20;;;;;;;3.85;1.20;;;;;;;;;;4855302;29;20075;-76
2023/04/26 14:43:46;;;;;;;6.68;0.90;;;;;;;;;;4848900;29;20048;-76